Share

Aqaba, Jordan

12:22 AM EEST on April 24, 2014 (GMT +0300)
Aqaba International (OJAQ) Elev 174 ft | 29.61 °N, 35.02 °E | Change Station

Current weather conditions updated 22 minutes ago

Clear
Clear
79 °F
Feels Like 79 °F
N
12
Wind Variable Wind from North
Sunrise 6:04 AM
Sunset 7:12 PM
Moon Waning Crescent

Today is forecast to be Much Warmer than yesterday.

Pressure 29.86 in
Visibility -9999.0 miles
Clouds
Dew Point 41 °F
Humidity 26%
Rainfall 0.00 in
Snow Depth Not available.
UV Not available.
Pollen Not available.
Air Quality Not available.
Flu Activity Not available.
METAR OJAQ 232100Z 35010KT CAVOK 26/05 Q1011 NOSIG

More Conditions Fewer Conditions

Pressure 29.86 in
Visibility -9999.0 miles
Clouds
Dew Point 41 °F
Humidity 26%
Rainfall 0.00 in
Snow Depth Not available.
UV Not available.
Pollen Not available.
Air Quality Not available.
Flu Activity Not available.
METAR OJAQ 232100Z 35010KT CAVOK 26/05 Q1011 NOSIG

More Conditions Fewer Conditions

10-Day Weather Forecast

Almanac

Astronomy

Apr. 24, 2014 Rise Set
Actual Time 6:04 AM EEST 7:12 PM EEST
Civil Twilight 5:39 AM EEST 7:37 PM EEST
Nautical Twilight 5:10 AM EEST 8:06 PM EEST
Astronomical Twilight 4:39 AM EEST 8:37 PM EEST
Moon 2:37 AM EEST (4/24) 2:27 PM EEST (4/24)
Length of Visible Light 13h 57m
Length of Day
13h 07m
Tomorrow will be 1m 36s longer.
Waning Crescent, 32% of the Moon is Illuminated
Apr 23
Waning Crescent
Apr 29
New
May 6
First Quarter
May 14
Full
May 21
Last Quarter

Yesterday's Extremes

Country Highs Country Lows

Community

  • Stunning Sunrise
    Stunning Sunrise
  • spring flowers
    spring flowers
  • Earth Day Spectrum Ove' Blue
    Earth Day Spectrum Ove' Blue
  • BARN B&W
    BARN B&W
  • April Sunset
    April Sunset

WunderPhotos

Upload Photos

1,704,415 photos uploaded!

WunderBlogs® & News

Nearby

Snow Depth

Not available.

Coastal Water Temperatures

Place Temperature
No Stations Reporting

Earthquake Activity

City Distance Mag. Time & Date
No recent earthquake activity has been reported nearby.
Minimum magnitude displayed is 2.5.

Nearby Weather Stations

Station Location Temp. Heat Index Dew Point Humidity Wind Precip. Elev Updated Type
TalaBay Marina, Aqaba 85.2 °F 82 °F 41 °F 21% SSE  at  2.0 mph - / hr 36 ft 12:11 AM IDT Normal

Show More Stations Show Fewer Stations

What do you think?

We're not finished. Please let us know what you like, what you don't like, and what you are still missing.